createdAt,value
2023-05-20T00:00:41.958Z,25.00
2023-05-20T00:03:09.113Z,25.00
2023-05-20T00:05:36.095Z,25.00
2023-05-20T00:08:03.110Z,25.00
2023-05-20T00:10:30.056Z,25.00
2023-05-20T00:12:57.096Z,25.00
2023-05-20T00:15:24.163Z,25.00
2023-05-20T00:17:51.291Z,25.00
2023-05-20T00:20:18.257Z,24.00
2023-05-20T00:22:45.246Z,24.00
2023-05-20T00:25:12.245Z,24.00
2023-05-20T00:27:39.211Z,25.00
2023-05-20T00:30:07.871Z,25.00
2023-05-20T00:32:35.208Z,23.50
2023-05-20T00:35:04.806Z,25.00
2023-05-20T00:37:32.111Z,24.50
2023-05-20T00:39:59.198Z,24.50
2023-05-20T00:42:28.827Z,24.75
2023-05-20T00:44:56.383Z,24.00
2023-05-20T00:47:30.647Z,25.00
2023-05-20T00:49:58.094Z,25.00
2023-05-20T00:52:25.863Z,24.00
2023-05-20T00:54:53.206Z,24.00
2023-05-20T00:57:20.678Z,24.00
2023-05-20T00:59:47.787Z,24.00
2023-05-20T01:02:14.800Z,25.00
2023-05-20T01:04:42.049Z,25.00
2023-05-20T01:07:08.952Z,24.00
2023-05-20T01:09:35.937Z,24.50
2023-05-20T01:12:12.386Z,25.00
2023-05-20T01:14:54.843Z,24.00
2023-05-20T01:17:24.021Z,24.00
2023-05-20T01:19:51.163Z,24.50
2023-05-20T01:22:18.204Z,25.00
2023-05-20T01:24:46.769Z,24.00
2023-05-20T01:27:14.318Z,25.00
2023-05-20T01:29:43.016Z,25.00
2023-05-20T01:32:15.428Z,24.75
2023-05-20T01:34:43.518Z,24.50
2023-05-20T01:37:11.120Z,24.00
2023-05-20T01:39:40.683Z,24.00
2023-05-20T01:42:09.572Z,24.50
2023-05-20T01:44:37.213Z,24.00
2023-05-20T01:47:04.573Z,24.00
2023-05-20T01:49:31.834Z,25.00
2023-05-20T01:51:59.271Z,24.00
2023-05-20T01:54:26.551Z,24.50
2023-05-20T01:56:53.544Z,24.25
2023-05-20T01:59:22.430Z,25.00
2023-05-20T02:01:50.959Z,25.00
2023-05-20T02:04:17.976Z,24.50
2023-05-20T02:06:45.565Z,25.00
2023-05-20T02:09:12.605Z,23.50
2023-05-20T02:11:39.620Z,24.00
2023-05-20T02:14:06.728Z,23.75
2023-05-20T02:16:33.782Z,24.00
2023-05-20T02:19:01.603Z,24.00
2023-05-20T02:21:28.596Z,24.00
2023-05-20T02:23:55.657Z,25.00
2023-05-20T02:26:22.562Z,24.00
2023-05-20T02:28:49.460Z,25.00
2023-05-20T02:31:17.081Z,24.00
2023-05-20T02:33:44.673Z,24.00
2023-05-20T02:36:12.471Z,25.00
2023-05-20T02:38:39.789Z,24.00
2023-05-20T02:41:06.939Z,24.00
2023-05-20T02:43:34.317Z,24.50
2023-05-20T02:46:01.800Z,25.00
2023-05-20T02:48:28.831Z,25.00
2023-05-20T02:50:55.985Z,24.50
2023-05-20T02:53:23.018Z,23.00
2023-05-20T02:55:50.315Z,25.50
2023-05-20T02:58:17.692Z,25.00
2023-05-20T03:00:44.919Z,24.00
2023-05-20T03:03:11.837Z,24.00
2023-05-20T03:05:38.764Z,24.00
2023-05-20T03:08:10.360Z,24.00
2023-05-20T03:10:40.429Z,23.00
2023-05-20T03:13:08.538Z,24.00
2023-05-20T03:15:40.695Z,24.00
2023-05-20T03:18:08.286Z,25.00
2023-05-20T03:20:36.651Z,24.50
2023-05-20T03:23:05.000Z,25.00
2023-05-20T03:25:32.135Z,25.00
2023-05-20T03:27:59.481Z,25.00
2023-05-20T03:30:27.665Z,25.00
2023-05-20T03:32:56.760Z,24.00
2023-05-20T03:35:24.150Z,23.00
2023-05-20T03:37:51.399Z,24.00
2023-05-20T03:40:19.619Z,25.00
2023-05-20T03:42:46.759Z,24.00
2023-05-20T03:45:14.161Z,24.00
2023-05-20T03:48:01.386Z,24.00
2023-05-20T03:50:29.195Z,24.00
2023-05-20T03:52:56.122Z,25.00
2023-05-20T03:55:24.146Z,25.00
2023-05-20T03:57:51.219Z,25.00
2023-05-20T04:00:18.940Z,23.00
2023-05-20T04:02:45.783Z,23.50
2023-05-20T04:05:16.577Z,24.00
2023-05-20T04:07:43.651Z,25.00
2023-05-20T04:10:12.344Z,24.00
2023-05-20T04:12:39.499Z,24.00
2023-05-20T04:15:08.029Z,24.00
2023-05-20T04:17:58.197Z,24.00
2023-05-20T04:20:25.446Z,24.00
2023-05-20T04:22:55.374Z,23.00
2023-05-20T04:25:22.648Z,25.00
2023-05-20T04:27:50.863Z,25.00
2023-05-20T04:30:17.875Z,25.00
2023-05-20T04:32:45.048Z,25.00
2023-05-20T04:35:12.805Z,25.00
2023-05-20T04:37:42.736Z,24.50
2023-05-20T04:40:11.469Z,25.00
2023-05-20T04:42:38.391Z,24.50
2023-05-20T04:45:06.217Z,25.00
2023-05-20T04:47:35.097Z,24.00
2023-05-20T04:50:02.041Z,24.00
2023-05-20T04:52:28.988Z,25.00
2023-05-20T04:54:56.053Z,25.00
2023-05-20T04:57:22.967Z,25.00
2023-05-20T04:59:49.978Z,25.00
2023-05-20T05:02:16.976Z,24.50
2023-05-20T05:04:44.074Z,24.00
2023-05-20T05:07:10.992Z,24.00
2023-05-20T05:09:38.216Z,24.50
2023-05-20T05:12:05.530Z,24.00
2023-05-20T05:14:32.578Z,24.00
2023-05-20T05:16:59.527Z,25.00
2023-05-20T05:19:26.666Z,24.00
2023-05-20T05:21:53.587Z,23.50
2023-05-20T05:24:20.617Z,25.00
2023-05-20T05:26:47.524Z,24.00
2023-05-20T05:29:15.017Z,25.00
2023-05-20T05:31:42.067Z,25.00
2023-05-20T05:34:09.148Z,24.00
2023-05-20T05:36:39.329Z,24.00
2023-05-20T05:39:06.935Z,24.00
2023-05-20T05:41:36.002Z,25.00
2023-05-20T05:44:04.792Z,25.00
2023-05-20T05:46:32.086Z,26.00
2023-05-20T05:48:59.237Z,25.00
2023-05-20T05:51:27.597Z,25.00
2023-05-20T05:53:55.022Z,24.00
2023-05-20T05:56:22.144Z,25.00
2023-05-20T05:58:49.298Z,26.00
2023-05-20T06:01:16.917Z,26.00
2023-05-20T06:03:44.318Z,25.00
2023-05-20T06:06:11.355Z,26.00
2023-05-20T06:08:38.632Z,24.50
2023-05-20T06:11:07.094Z,25.00
2023-05-20T06:13:34.190Z,25.00
2023-05-20T06:16:01.152Z,25.00
2023-05-20T06:18:28.181Z,25.00
2023-05-20T06:20:59.075Z,26.00
2023-05-20T06:23:26.763Z,25.00
2023-05-20T06:26:01.771Z,26.00
2023-05-20T06:28:30.364Z,25.00
2023-05-20T06:30:58.011Z,26.00
2023-05-20T06:33:27.761Z,25.00
2023-05-20T06:35:59.364Z,25.00
2023-05-20T06:38:26.375Z,26.00
2023-05-20T06:40:53.622Z,26.00
2023-05-20T06:43:20.646Z,26.00
2023-05-20T06:46:07.852Z,26.00
2023-05-20T06:48:41.988Z,26.00
2023-05-20T06:51:09.310Z,25.50
2023-05-20T06:53:36.931Z,24.50
2023-05-20T06:56:04.265Z,26.00
2023-05-20T06:58:33.193Z,25.00
2023-05-20T07:01:00.206Z,26.00
2023-05-20T07:03:27.588Z,26.00
2023-05-20T07:05:54.622Z,25.50
2023-05-20T07:08:21.730Z,26.00
2023-05-20T07:10:49.030Z,26.00
2023-05-20T07:13:20.174Z,25.00
2023-05-20T07:15:47.672Z,25.50
2023-05-20T07:18:16.182Z,25.00
2023-05-20T07:20:46.640Z,25.00
2023-05-20T07:23:26.922Z,25.00
2023-05-20T07:25:55.397Z,24.00
2023-05-20T07:28:22.374Z,25.00
2023-05-20T07:30:50.219Z,25.00
2023-05-20T07:33:26.815Z,26.00
2023-05-20T07:35:54.333Z,25.00
2023-05-20T07:38:22.393Z,26.00
2023-05-20T07:40:56.542Z,26.00
2023-05-20T07:43:24.529Z,26.00
2023-05-20T07:45:51.575Z,25.00
2023-05-20T07:48:18.730Z,25.50
2023-05-20T07:50:45.718Z,26.00
2023-05-20T07:53:13.401Z,27.00
2023-05-20T07:55:40.468Z,26.00
2023-05-20T07:58:07.463Z,26.00
2023-05-20T08:00:35.695Z,26.00
2023-05-20T08:03:06.165Z,25.50
2023-05-20T08:05:45.554Z,26.00
2023-05-20T08:08:12.648Z,26.00
2023-05-20T08:10:51.085Z,26.00
2023-05-20T08:13:19.193Z,27.00
2023-05-20T08:15:46.333Z,26.25
2023-05-20T08:18:15.022Z,27.00
2023-05-20T08:20:42.475Z,26.25
2023-05-20T08:23:09.601Z,26.50
2023-05-20T08:25:36.665Z,26.00
2023-05-20T08:28:05.387Z,27.00
2023-05-20T08:30:34.143Z,26.00
2023-05-20T08:33:01.836Z,26.00
2023-05-20T08:35:30.751Z,26.00
2023-05-20T08:37:58.469Z,26.00
2023-05-20T08:40:27.025Z,25.75
2023-05-20T08:42:54.179Z,27.00
2023-05-20T08:45:25.499Z,26.00
2023-05-20T08:47:53.209Z,27.00
2023-05-20T08:50:20.539Z,27.00
2023-05-20T08:52:48.433Z,26.50
2023-05-20T08:55:18.830Z,26.50
2023-05-20T08:57:45.880Z,27.00
2023-05-20T09:00:16.452Z,27.00
2023-05-20T09:02:45.673Z,27.00
2023-05-20T09:05:12.693Z,27.00
2023-05-20T09:07:39.752Z,27.00
2023-05-20T09:10:07.170Z,26.00
2023-05-20T09:12:34.333Z,26.00
2023-05-20T09:15:01.509Z,27.00
2023-05-20T09:17:28.589Z,27.00
2023-05-20T09:19:55.604Z,26.00
2023-05-20T09:22:26.763Z,27.50
2023-05-20T09:24:54.545Z,26.00
2023-05-20T09:27:22.535Z,27.00
2023-05-20T09:29:50.066Z,27.00
2023-05-20T09:32:17.455Z,27.00
2023-05-20T09:34:46.492Z,27.00
2023-05-20T09:37:14.808Z,27.00
2023-05-20T09:39:55.775Z,26.00
2023-05-20T09:42:26.490Z,26.00
2023-05-20T09:44:54.557Z,26.00
2023-05-20T09:47:21.671Z,24.50
2023-05-20T09:49:50.280Z,26.50
2023-05-20T09:52:20.783Z,27.50
2023-05-20T09:54:50.221Z,27.00
2023-05-20T09:57:17.364Z,27.00
2023-05-20T09:59:45.840Z,28.00
2023-05-20T10:02:13.040Z,27.00
2023-05-20T10:04:49.088Z,27.00
2023-05-20T10:07:44.134Z,26.00
2023-05-20T10:10:18.381Z,26.00
2023-05-20T10:13:03.904Z,26.50
2023-05-20T10:16:01.691Z,26.00
2023-05-20T10:19:06.014Z,27.25
2023-05-20T10:21:33.231Z,28.25
2023-05-20T10:24:08.212Z,28.00
2023-05-20T10:26:44.233Z,27.00
2023-05-20T10:29:18.557Z,27.00
2023-05-20T10:31:49.239Z,28.00
2023-05-20T10:34:17.787Z,27.50
2023-05-20T10:36:58.517Z,28.00
2023-05-20T10:39:30.051Z,27.50
2023-05-20T10:42:10.310Z,28.00
2023-05-20T10:44:44.766Z,27.25
2023-05-20T10:49:45.588Z,27.00
2023-05-20T10:52:14.352Z,26.50
2023-05-20T10:54:56.604Z,26.50
2023-05-20T10:57:26.225Z,26.00
2023-05-20T10:59:55.165Z,26.00
2023-05-20T11:02:22.744Z,27.00
2023-05-20T11:04:50.242Z,27.00
2023-05-20T11:07:27.877Z,26.00
2023-05-20T11:09:56.377Z,27.00
2023-05-20T11:12:24.915Z,27.00
2023-05-20T11:14:52.300Z,26.50
2023-05-20T11:17:20.234Z,27.50
2023-05-20T11:19:48.133Z,27.00
2023-05-20T11:22:15.023Z,27.00
2023-05-20T11:24:42.284Z,27.00
2023-05-20T11:27:09.336Z,27.50
2023-05-20T11:29:37.140Z,28.25
2023-05-20T11:32:04.429Z,28.00
2023-05-20T11:34:38.439Z,27.00
2023-05-20T11:37:09.996Z,27.00
2023-05-20T11:39:38.005Z,27.75
2023-05-20T11:42:05.239Z,27.50
2023-05-20T11:44:32.409Z,27.00
2023-05-20T11:47:01.601Z,27.00
2023-05-20T11:49:29.270Z,26.00
2023-05-20T11:51:57.147Z,26.00
2023-05-20T11:54:25.146Z,27.50
2023-05-20T11:56:54.818Z,28.00
2023-05-20T11:59:24.610Z,28.75
2023-05-20T12:01:51.581Z,28.00
2023-05-20T12:04:18.807Z,29.00
2023-05-20T12:06:46.114Z,28.00
2023-05-20T12:09:13.259Z,27.00
2023-05-20T12:11:40.590Z,27.75
2023-05-20T12:14:11.007Z,28.00
2023-05-20T12:16:38.506Z,28.75
2023-05-20T12:19:05.852Z,28.00
2023-05-20T12:21:33.068Z,28.25
2023-05-20T12:24:00.184Z,27.00
2023-05-20T12:26:29.142Z,28.00
2023-05-20T12:28:56.974Z,27.75
2023-05-20T12:31:24.568Z,27.00
2023-05-20T12:33:51.723Z,27.00
2023-05-20T12:36:18.780Z,26.50
2023-05-20T12:38:45.747Z,26.00
2023-05-20T12:41:12.695Z,25.50
2023-05-20T12:43:39.547Z,26.00
2023-05-20T12:46:06.832Z,27.00
2023-05-20T12:48:33.758Z,27.25
2023-05-20T12:51:01.043Z,27.00
2023-05-20T12:53:28.021Z,28.00
2023-05-20T12:55:55.191Z,28.00
2023-05-20T12:58:22.196Z,28.50
2023-05-20T13:00:49.341Z,27.00
2023-05-20T13:03:16.512Z,27.00
2023-05-20T13:05:43.612Z,27.00
2023-05-20T13:08:10.617Z,26.00
2023-05-20T13:10:38.189Z,27.00
2023-05-20T13:13:05.251Z,28.00
2023-05-20T13:15:32.351Z,28.00
2023-05-20T13:17:59.324Z,26.00
2023-05-20T13:20:26.392Z,26.00
2023-05-20T13:22:53.332Z,26.00
2023-05-20T13:25:20.363Z,27.00
2023-05-20T13:27:47.291Z,28.00
2023-05-20T13:30:14.254Z,30.00
2023-05-20T13:32:43.377Z,29.00
2023-05-20T13:35:10.533Z,28.00
2023-05-20T13:37:37.468Z,27.50
2023-05-20T13:40:04.835Z,27.00
2023-05-20T13:42:31.839Z,26.00
2023-05-20T13:45:00.420Z,27.25
2023-05-20T13:47:27.451Z,27.00
2023-05-20T13:49:56.948Z,27.00
2023-05-20T13:52:25.248Z,27.00
2023-05-20T13:54:52.385Z,27.00
2023-05-20T13:57:19.349Z,28.00
2023-05-20T13:59:46.313Z,28.00
2023-05-20T14:02:13.291Z,28.00
2023-05-20T14:04:40.492Z,28.00
2023-05-20T14:07:09.671Z,26.50
2023-05-20T14:09:37.045Z,26.00
2023-05-20T14:12:05.930Z,26.00
2023-05-20T14:14:33.197Z,25.00
2023-05-20T14:17:00.066Z,27.00
2023-05-20T14:19:27.526Z,27.00
2023-05-20T14:21:54.625Z,27.00
2023-05-20T14:24:23.591Z,27.00
2023-05-20T14:26:51.001Z,26.00
2023-05-20T14:29:18.087Z,27.00
2023-05-20T14:31:45.171Z,27.00
2023-05-20T14:34:12.326Z,27.00
2023-05-20T14:36:40.728Z,27.00
2023-05-20T14:39:07.704Z,27.00
2023-05-20T14:41:34.670Z,27.00
2023-05-20T14:44:01.719Z,27.00
2023-05-20T14:46:28.624Z,26.00
2023-05-20T14:48:55.668Z,25.00
2023-05-20T14:51:22.659Z,27.00
2023-05-20T14:53:49.700Z,27.00
2023-05-20T14:56:16.768Z,26.50
2023-05-20T14:58:43.976Z,27.00
2023-05-20T15:01:10.951Z,27.00
2023-05-20T15:03:38.101Z,26.00
2023-05-20T15:06:05.211Z,26.50
2023-05-20T15:08:32.511Z,28.00
2023-05-20T15:10:59.655Z,27.75
2023-05-20T15:13:26.657Z,27.50
2023-05-20T15:15:53.916Z,28.00
2023-05-20T15:18:20.947Z,28.00
2023-05-20T15:20:47.878Z,27.50
2023-05-20T15:23:14.983Z,28.50
2023-05-20T15:25:41.936Z,27.00
2023-05-20T15:28:08.968Z,26.00
2023-05-20T15:30:36.393Z,26.50
2023-05-20T15:33:03.862Z,27.00
2023-05-20T15:35:30.835Z,26.50
2023-05-20T15:37:57.771Z,28.00
2023-05-20T15:40:24.943Z,28.00
2023-05-20T15:42:51.967Z,28.50
2023-05-20T15:45:19.147Z,28.00
2023-05-20T15:47:46.185Z,27.50
2023-05-20T15:50:13.153Z,27.00
2023-05-20T15:52:40.325Z,28.00
2023-05-20T15:55:08.433Z,27.00
2023-05-20T15:57:35.501Z,27.00
2023-05-20T16:00:02.962Z,27.00
2023-05-20T16:02:32.863Z,28.00
2023-05-20T16:05:02.118Z,27.00
2023-05-20T16:07:29.229Z,26.00
2023-05-20T16:09:56.273Z,26.50
2023-05-20T16:12:24.144Z,28.00
2023-05-20T16:14:51.068Z,28.00
2023-05-20T16:17:18.020Z,26.50
2023-05-20T16:19:45.951Z,27.00
2023-05-20T16:22:13.254Z,27.00
2023-05-20T16:24:41.218Z,27.00
2023-05-20T16:27:08.180Z,26.00
2023-05-20T16:29:35.154Z,26.00
2023-05-20T16:32:02.173Z,26.50
2023-05-20T16:34:29.222Z,27.50
2023-05-20T16:36:56.136Z,27.25
2023-05-20T16:39:23.174Z,28.00
2023-05-20T16:41:50.052Z,29.00
2023-05-20T16:44:17.306Z,27.25
2023-05-20T16:46:44.273Z,28.00
2023-05-20T16:49:11.287Z,28.75
2023-05-20T16:51:38.189Z,29.00
2023-05-20T16:54:05.116Z,28.75
2023-05-20T16:56:32.089Z,29.00
2023-05-20T16:58:59.083Z,29.00
2023-05-20T17:01:26.084Z,29.00
2023-05-20T17:03:53.165Z,29.00
2023-05-20T17:06:20.237Z,28.00
2023-05-20T17:08:47.351Z,27.00
2023-05-20T17:11:14.362Z,28.00
2023-05-20T17:13:41.390Z,28.00
2023-05-20T17:16:09.849Z,28.75
2023-05-20T17:18:37.359Z,29.00
2023-05-20T17:21:04.480Z,28.00
2023-05-20T17:23:31.504Z,27.00
2023-05-20T17:25:58.533Z,28.25
2023-05-20T17:28:25.652Z,29.00
2023-05-20T17:30:52.604Z,28.00
2023-05-20T17:33:20.140Z,28.00
2023-05-20T17:35:47.147Z,30.00
2023-05-20T17:38:14.197Z,32.50
2023-05-20T17:40:41.044Z,33.00
2023-05-20T17:43:07.981Z,37.00
2023-05-20T17:45:34.900Z,39.50
2023-05-20T17:48:02.064Z,40.00
2023-05-20T17:50:29.053Z,35.50
2023-05-20T17:52:56.081Z,34.00
2023-05-20T17:55:23.034Z,32.00
2023-05-20T17:57:50.080Z,37.00
2023-05-20T18:00:17.412Z,35.00
2023-05-20T18:02:44.401Z,30.00
2023-05-20T18:05:11.589Z,29.00
2023-05-20T18:07:38.784Z,29.00
2023-05-20T18:10:06.265Z,29.00
2023-05-20T18:12:33.341Z,30.25
2023-05-20T18:15:00.287Z,36.75
2023-05-20T18:17:27.384Z,44.25
2023-05-20T18:19:54.470Z,39.50
2023-05-20T18:22:21.463Z,33.00
2023-05-20T18:24:48.765Z,31.00
2023-05-20T18:27:15.924Z,31.00
2023-05-20T18:29:42.953Z,31.00
2023-05-20T18:32:10.122Z,30.00
2023-05-20T18:34:37.196Z,29.00
2023-05-20T18:37:04.741Z,29.00
2023-05-20T18:39:31.729Z,28.25
2023-05-20T18:41:58.833Z,28.00
2023-05-20T18:44:25.820Z,27.50
2023-05-20T18:46:52.983Z,27.75
2023-05-20T18:49:19.953Z,28.00
2023-05-20T18:51:47.042Z,28.50
2023-05-20T18:54:13.965Z,28.00
2023-05-20T18:56:41.155Z,26.00
2023-05-20T18:59:08.177Z,27.00
2023-05-20T19:01:35.187Z,26.00
2023-05-20T19:04:02.497Z,27.25
2023-05-20T19:06:29.815Z,27.50
2023-05-20T19:08:56.768Z,26.00
2023-05-20T19:11:23.775Z,28.00
2023-05-20T19:13:50.805Z,28.00
2023-05-20T19:16:17.922Z,28.00
2023-05-20T19:18:44.917Z,27.75
2023-05-20T19:21:11.984Z,28.00
2023-05-20T19:23:38.986Z,30.00
2023-05-20T19:26:06.164Z,31.00
2023-05-20T19:28:33.448Z,28.50
2023-05-20T19:31:00.733Z,28.00
2023-05-20T19:33:27.730Z,26.00
2023-05-20T19:35:54.816Z,26.00
2023-05-20T19:38:21.723Z,26.00
2023-05-20T19:40:48.771Z,27.00
2023-05-20T19:43:15.811Z,26.25
2023-05-20T19:45:43.053Z,27.00
2023-05-20T19:48:10.121Z,27.50
2023-05-20T19:50:37.206Z,27.50
2023-05-20T19:53:04.088Z,27.00
2023-05-20T19:55:31.065Z,27.00
2023-05-20T19:57:58.059Z,27.00
2023-05-20T20:00:25.160Z,27.00
2023-05-20T20:02:52.028Z,28.00
2023-05-20T20:05:19.936Z,27.50
2023-05-20T20:07:48.464Z,26.50
2023-05-20T20:10:16.268Z,26.50
2023-05-20T20:12:43.233Z,26.00
2023-05-20T20:15:10.561Z,25.50
2023-05-20T20:17:37.735Z,26.00
2023-05-20T20:20:05.324Z,27.00
2023-05-20T20:22:32.232Z,28.00
2023-05-20T20:24:59.108Z,27.00
2023-05-20T20:27:25.978Z,26.00
2023-05-20T20:29:52.866Z,26.00
2023-05-20T20:32:19.817Z,27.00
2023-05-20T20:34:46.890Z,27.00
2023-05-20T20:37:14.571Z,29.00
2023-05-20T20:39:41.609Z,28.00
2023-05-20T20:42:08.653Z,27.00
2023-05-20T20:44:35.601Z,26.00
2023-05-20T20:47:02.752Z,26.00
2023-05-20T20:49:29.908Z,26.00
2023-05-20T20:51:57.071Z,25.00
2023-05-20T20:54:23.989Z,26.00
2023-05-20T20:56:51.022Z,26.00
2023-05-20T20:59:17.883Z,26.00
2023-05-20T21:01:44.932Z,25.50
2023-05-20T21:04:12.004Z,27.00
2023-05-20T21:06:39.962Z,28.00
2023-05-20T21:09:06.853Z,28.00
2023-05-20T21:11:35.567Z,28.50
2023-05-20T21:14:02.757Z,28.00
2023-05-20T21:16:29.762Z,29.00
2023-05-20T21:18:56.798Z,29.75
2023-05-20T21:21:23.789Z,30.00
2023-05-20T21:23:50.804Z,29.00
2023-05-20T21:26:17.857Z,30.00
2023-05-20T21:28:46.041Z,30.00
2023-05-20T21:31:13.132Z,31.00
2023-05-20T21:33:40.156Z,32.75
2023-05-20T21:36:07.164Z,30.50
2023-05-20T21:38:34.247Z,31.00
2023-05-20T21:41:01.704Z,28.50
2023-05-20T21:43:28.715Z,29.50
2023-05-20T21:45:55.973Z,30.00
2023-05-20T21:48:23.255Z,32.75
2023-05-20T21:50:50.910Z,32.50
2023-05-20T21:53:17.888Z,34.00
2023-05-20T21:55:45.096Z,31.00
2023-05-20T21:58:12.006Z,32.75
2023-05-20T22:00:38.937Z,32.00
2023-05-20T22:03:06.112Z,33.00
2023-05-20T22:05:33.359Z,32.50
2023-05-20T22:08:00.400Z,31.00
2023-05-20T22:10:27.426Z,31.00
2023-05-20T22:12:54.956Z,32.25
2023-05-20T22:15:22.258Z,31.00
2023-05-20T22:17:49.643Z,31.25
2023-05-20T22:20:17.042Z,30.00
2023-05-20T22:22:44.282Z,29.00
2023-05-20T22:25:11.257Z,28.50
2023-05-20T22:27:38.621Z,28.00
2023-05-20T22:30:06.461Z,28.00
2023-05-20T22:32:34.995Z,27.00
2023-05-20T22:35:03.255Z,27.00
2023-05-20T22:37:30.370Z,27.00
2023-05-20T22:39:57.253Z,26.00
2023-05-20T22:42:24.132Z,27.00
2023-05-20T22:44:51.420Z,25.50
2023-05-20T22:47:18.573Z,25.00
2023-05-20T22:49:45.503Z,26.00
2023-05-20T22:52:12.444Z,27.00
2023-05-20T22:54:39.381Z,28.00
2023-05-20T22:57:06.430Z,27.00
2023-05-20T22:59:33.403Z,27.00
2023-05-20T23:02:00.309Z,27.00
2023-05-20T23:04:27.289Z,27.00
2023-05-20T23:06:54.240Z,27.00
2023-05-20T23:09:21.174Z,25.50
2023-05-20T23:11:48.132Z,26.00
2023-05-20T23:14:15.040Z,25.00
2023-05-20T23:16:42.185Z,25.00
2023-05-20T23:19:09.305Z,27.00
2023-05-20T23:21:36.320Z,26.50
2023-05-20T23:24:03.923Z,25.50
2023-05-20T23:26:30.857Z,25.00
2023-05-20T23:28:57.852Z,25.00
2023-05-20T23:31:24.769Z,25.00
2023-05-20T23:33:51.716Z,24.00
2023-05-20T23:36:18.730Z,24.00
2023-05-20T23:38:45.776Z,24.50
2023-05-20T23:41:12.669Z,26.00
2023-05-20T23:43:39.631Z,25.50
2023-05-20T23:46:06.565Z,25.00
2023-05-20T23:48:33.921Z,24.50
2023-05-20T23:51:00.864Z,23.50
2023-05-20T23:53:27.795Z,23.00
2023-05-20T23:55:54.684Z,24.50
2023-05-20T23:58:21.690Z,25.00
